Flight Track Log - Related Links

Times and Time Zones

All times are in EDT time to prevent confusion due to time zone crossing. See the UAL5786 flight status page for this flight to view local times or setup timezone preferences in your user account.

Time Position Orientation Groundspeed Altitude Reporting Facility
EDT Latitude Longitude Course Direction KTS MPH feet Rate Location/Type
Sun 07:09:41 PM 41.9167 -87.9167 191° South 184 212 3,500  Level Chicago TRACON
Sun 07:10:25 PM 41.8689 -87.9317 193° South 210 242 5,000 2,208 Climbing Chicago Center
Sun 07:11:27 PM 41.7939 -87.9519 191° South 261 300 7,400 2,371 Climbing Chicago Center
Sun 07:12:29 PM 41.7156 -87.9375 172° South 286 329 9,900 1,935 Climbing Chicago Center
Sun 07:13:31 PM 41.6239 -87.9194 172° South 320 368 11,400 1,210 Climbing Chicago Center
Sun 07:14:33 PM 41.5275 -87.8997 171° South 356 410 12,400 1,210 Climbing Chicago Center
Sun 07:15:00 PM 41.4113 -87.5131 191° South  Level Estimated
Sun 07:15:35 PM 41.4150 -87.8800 173° South 378 435 13,900  Level Chicago Center
Sun 07:16:37 PM 41.3103 -87.8869 183° South 379 436 15,400 1,452 Climbing Chicago Center
Sun 07:17:39 PM 41.1981 -87.8922 182° South 378 435 16,900 1,403 Climbing Chicago Center
Sun 07:18:41 PM 41.0967 -87.8889 179° South 379 436 18,300 1,306 Climbing Chicago Center
Sun 07:19:43 PM 40.9919 -87.8856 179° South 377 434 19,600 1,258 Climbing Chicago Center
Sun 07:20:45 PM 40.8850 -87.8817 178° South 380 437 20,900 1,210 Climbing Chicago Center
Sun 07:21:47 PM 40.7783 -87.8783 179° South 381 438 22,100 1,258 Climbing Chicago Center
Sun 07:22:49 PM 40.6708 -87.8753 179° South 383 441 23,500 1,500 Climbing Chicago Center
Sun 07:23:51 PM 40.5444 -87.8700 178° South 383 441 25,200 1,548 Climbing Chicago Center
Sun 07:24:53 PM 40.4389 -87.8681 179° South 381 438 26,700 1,452 Climbing Chicago Center
Sun 07:25:55 PM 40.3350 -87.8644 178° South 375 432 28,200 1,500 Climbing Chicago Center
Sun 07:26:57 PM 40.2344 -87.8606 178° South 364 419 29,800 1,597 Climbing Chicago Center
Sun 07:27:59 PM 40.1333 -87.8558 178° South 351 404 31,500 1,306 Climbing Chicago Center
Sun 07:29:01 PM 40.0375 -87.8528 179° South 348 400 32,500 871 Climbing Chicago Center
Sun 07:30:03 PM 39.9397 -87.8486 178° South 349 402 33,300 1,000 Climbing Chicago Center
Sun 07:30:43 PM 39.8592 -87.8444 178° South 351 404 34,200 1,010 Climbing Indianapolis Center
Sun 07:31:44 PM 39.7611 -87.8406 178° South 351 404 35,000 390 Climbing Indianapolis Center
Sun 07:32:46 PM 39.6592 -87.8358 178° South 360 414 35,000  Level Indianapolis Center
Sun 07:33:48 PM 39.5494 -87.8317 178° South 385 443 35,000  Level Indianapolis Center
Sun 07:34:49 PM 39.4322 -87.8256 178° South 413 475 35,000  Level Indianapolis Center
Sun 07:35:51 PM 39.2931 -87.8197 178° South 433 498 35,000  Level Indianapolis Center
Sun 07:36:53 PM 39.1669 -87.8144 178° South 445 512 35,000  Level Indianapolis Center
Sun 07:37:54 PM 39.0433 -87.8094 178° South 448 516 35,000  Level Indianapolis Center
Sun 07:38:56 PM 38.9186 -87.8008 177° South 448 516 35,000  Level Indianapolis Center
Sun 07:39:58 PM 38.7947 -87.7497 162° South 465 535 35,000  Level Indianapolis Center
Sun 07:40:59 PM 38.6689 -87.6978 162° South 469 540 35,000  Level Indianapolis Center
Sun 07:42:01 PM 38.5183 -87.6361 162° South 472 543 35,000  Level Indianapolis Center
Sun 07:43:03 PM 38.3933 -87.5842 162° South 472 543 35,000  Level Indianapolis Center
Sun 07:44:04 PM 38.2808 -87.4933 148° Southeast 488 562 35,000  Level Indianapolis Center
Sun 07:45:06 PM 38.1944 -87.3567 129° Southeast 497 572 35,000  Level Indianapolis Center
Sun 07:46:08 PM 38.1075 -87.2200 129° Southeast 499 574 35,000  Level Indianapolis Center
Sun 07:47:09 PM 38.0222 -87.0825 128° Southeast 502 578 35,000  Level Indianapolis Center
Sun 07:48:11 PM 37.9197 -86.9200 129° Southeast 499 574 35,000  Level Indianapolis Center
Sun 07:49:13 PM 37.8328 -86.7831 129° Southeast 497 572 35,000 -435 Level Indianapolis Center
Sun 07:50:15 PM 37.7450 -86.6472 129° Southeast 498 573 34,100 -1,268 Descending Indianapolis Center
Sun 07:51:16 PM 37.6606 -86.5147 129° Southeast 486 559 32,400 -1,512 Descending Indianapolis Center
Sun 07:52:18 PM 37.5747 -86.3822 129° Southeast 482 555 31,000 -677 Descending Indianapolis Center
Sun 07:53:20 PM 37.4858 -86.2464 129° Southeast 488 562 31,000  Level Indianapolis Center
Sun 07:54:21 PM 37.3994 -86.1117 129° Southeast 489 563 31,000  Level Indianapolis Center
Sun 07:55:23 PM 37.3128 -85.9794 129° Southeast 488 562 31,000  Level Indianapolis Center
Sun 07:56:25 PM 37.2250 -85.8461 130° Southeast 488 562 31,000  Level Indianapolis Center
Sun 07:57:26 PM 37.1258 -85.6956 130° Southeast 481 554 31,000  Level Indianapolis Center
Sun 07:58:28 PM 37.0383 -85.5628 130° Southeast 483 556 31,000  Level Indianapolis Center
Sun 07:59:30 PM 36.9567 -85.4394 130° Southeast 487 560 31,000 -732 Level Indianapolis Center
Sun 08:00:31 PM 36.8689 -85.3069 130° Southeast 486 559 29,500 -1,707 Descending Indianapolis Center
Sun 08:01:33 PM 36.7811 -85.1747 130° Southeast 491 565 27,500 -1,935 Descending Indianapolis Center
Sun 08:02:35 PM 36.6944 -85.0461 130° Southeast 488 562 25,500 -2,537 Descending Indianapolis Center
Sun 08:03:36 PM 36.5925 -84.8967 130° Southeast 474 545 22,300 -2,976 Descending Indianapolis Center
Sun 08:04:38 PM 36.5108 -84.7764 130° Southeast 459 528 19,400 -2,732 Descending Indianapolis Center
Sun 08:05:39 PM 36.4344 -84.6650 130° Southeast 434 499 16,700 -2,683 Descending Indianapolis Center
Sun 08:06:41 PM 36.3619 -84.5592 130° Southeast 410 472 13,900 -2,468 Descending Indianapolis Center
Sun 08:07:43 PM 36.2964 -84.4614 130° Southeast 380 437 11,600 -1,415 Descending Indianapolis Center
Sun 08:08:44 PM 36.2342 -84.3742 131° Southeast 350 403 11,000 -780 Descending Indianapolis Center
Sun 08:09:46 PM 36.1825 -84.2967 130° Southeast 309 356 10,000 -1,561 Descending Indianapolis Center
Sun 08:10:47 PM 36.1292 -84.2192 130° Southeast 298 343 7,800 -1,805 Descending Indianapolis Center
Sun 08:11:49 PM 36.0769 -84.1433 130° Southeast 295 339 6,300 -1,664 Descending Indianapolis Center
Sun 08:12:46 PM 36.0250 -84.0772 134° Southeast 284 327 4,500 -1,179 Descending Atlanta Center
Sun 08:13:46 PM 35.9769 -84.0081 131° Southeast 277 319 4,000 -500 Descending Atlanta Center
Sun 08:14:46 PM 35.9289 -83.9464 134° Southeast 261 300 3,500 -800 Descending Atlanta Center
Sun 08:15:46 PM 35.8725 -83.9311 168° South 212 244 2,400 -900 Descending Atlanta Center
Sun 08:16:46 PM 35.8414 -83.9594 216° Southwest 167 192 1,700 -700 Descending Atlanta Center

Login

Don't have an account? Register now (free) for customized features, flight alerts, and more!